sensor_id;sensor_type;location;lat;lon;timestamp;P1;durP1;ratioP1;P2;durP2;ratioP2
55869;SDS011;41790;50.940;4.560;2023-02-07T00:02:01;14.57;;;6.57;;
55869;SDS011;41790;50.940;4.560;2023-02-07T00:04:27;16.88;;;7.22;;
55869;SDS011;41790;50.940;4.560;2023-02-07T00:06:54;12.38;;;6.63;;
55869;SDS011;41790;50.940;4.560;2023-02-07T00:09:19;13.35;;;6.78;;
55869;SDS011;41790;50.940;4.560;2023-02-07T00:11:45;16.38;;;6.35;;
55869;SDS011;41790;50.940;4.560;2023-02-07T00:14:11;14.88;;;7.47;;
55869;SDS011;41790;50.940;4.560;2023-02-07T00:16:38;16.77;;;7.00;;
55869;SDS011;41790;50.940;4.560;2023-02-07T00:19:05;13.27;;;6.57;;
55869;SDS011;41790;50.940;4.560;2023-02-07T00:21:31;13.80;;;5.20;;
55869;SDS011;41790;50.940;4.560;2023-02-07T00:23:56;17.83;;;6.80;;
55869;SDS011;41790;50.940;4.560;2023-02-07T00:26:23;15.82;;;7.63;;
55869;SDS011;41790;50.940;4.560;2023-02-07T00:28:50;16.38;;;6.55;;
55869;SDS011;41790;50.940;4.560;2023-02-07T00:31:21;13.25;;;6.40;;
55869;SDS011;41790;50.940;4.560;2023-02-07T00:41:29;15.48;;;6.35;;
55869;SDS011;41790;50.940;4.560;2023-02-07T00:43:55;12.40;;;5.72;;
55869;SDS011;41790;50.940;4.560;2023-02-07T00:46:21;14.93;;;6.35;;
55869;SDS011;41790;50.940;4.560;2023-02-07T00:48:47;8.30;;;4.97;;
55869;SDS011;41790;50.940;4.560;2023-02-07T00:51:13;13.73;;;6.40;;
55869;SDS011;41790;50.940;4.560;2023-02-07T00:53:39;12.52;;;6.80;;
55869;SDS011;41790;50.940;4.560;2023-02-07T00:56:05;11.65;;;6.30;;
55869;SDS011;41790;50.940;4.560;2023-02-07T00:58:32;7.90;;;5.47;;
55869;SDS011;41790;50.940;4.560;2023-02-07T01:00:58;10.23;;;5.72;;
55869;SDS011;41790;50.940;4.560;2023-02-07T01:03:24;15.20;;;7.22;;
55869;SDS011;41790;50.940;4.560;2023-02-07T01:05:50;11.82;;;6.32;;
55869;SDS011;41790;50.940;4.560;2023-02-07T01:08:15;10.60;;;6.20;;
55869;SDS011;41790;50.940;4.560;2023-02-07T01:10:42;11.65;;;6.20;;
55869;SDS011;41790;50.940;4.560;2023-02-07T01:13:09;11.73;;;5.78;;
55869;SDS011;41790;50.940;4.560;2023-02-07T01:15:40;14.50;;;5.85;;
55869;SDS011;41790;50.940;4.560;2023-02-07T01:18:08;10.18;;;5.45;;
55869;SDS011;41790;50.940;4.560;2023-02-07T01:20:34;17.38;;;6.00;;
55869;SDS011;41790;50.940;4.560;2023-02-07T01:23:00;13.95;;;6.05;;
55869;SDS011;41790;50.940;4.560;2023-02-07T01:25:26;13.05;;;6.00;;
55869;SDS011;41790;50.940;4.560;2023-02-07T01:27:52;17.33;;;6.20;;
55869;SDS011;41790;50.940;4.560;2023-02-07T01:30:17;8.30;;;5.55;;
55869;SDS011;41790;50.940;4.560;2023-02-07T01:32:43;11.63;;;6.03;;
55869;SDS011;41790;50.940;4.560;2023-02-07T01:35:09;9.57;;;5.65;;
55869;SDS011;41790;50.940;4.560;2023-02-07T01:37:35;12.95;;;6.90;;
55869;SDS011;41790;50.940;4.560;2023-02-07T01:40:00;14.55;;;6.50;;
55869;SDS011;41790;50.940;4.560;2023-02-07T01:42:27;10.65;;;6.07;;
55869;SDS011;41790;50.940;4.560;2023-02-07T01:47:22;15.77;;;5.93;;
55869;SDS011;41790;50.940;4.560;2023-02-07T01:49:49;14.88;;;6.95;;
55869;SDS011;41790;50.940;4.560;2023-02-07T01:52:18;13.65;;;5.95;;
55869;SDS011;41790;50.940;4.560;2023-02-07T01:54:56;12.10;;;6.82;;
55869;SDS011;41790;50.940;4.560;2023-02-07T01:57:24;20.95;;;6.45;;
55869;SDS011;41790;50.940;4.560;2023-02-07T01:59:51;13.95;;;6.97;;
55869;SDS011;41790;50.940;4.560;2023-02-07T02:02:20;10.70;;;6.15;;
55869;SDS011;41790;50.940;4.560;2023-02-07T02:04:48;13.27;;;6.30;;
55869;SDS011;41790;50.940;4.560;2023-02-07T02:07:17;8.75;;;5.97;;
55869;SDS011;41790;50.940;4.560;2023-02-07T02:09:43;22.10;;;6.25;;
55869;SDS011;41790;50.940;4.560;2023-02-07T02:17:51;10.52;;;6.10;;
55869;SDS011;41790;50.940;4.560;2023-02-07T02:20:29;15.82;;;5.72;;
55869;SDS011;41790;50.940;4.560;2023-02-07T02:23:33;13.95;;;6.60;;
55869;SDS011;41790;50.940;4.560;2023-02-07T02:29:16;12.25;;;6.50;;
55869;SDS011;41790;50.940;4.560;2023-02-07T02:37:16;19.55;;;6.78;;
55869;SDS011;41790;50.940;4.560;2023-02-07T02:42:42;13.90;;;7.28;;
55869;SDS011;41790;50.940;4.560;2023-02-07T02:45:17;13.85;;;6.47;;
55869;SDS011;41790;50.940;4.560;2023-02-07T02:48:06;11.02;;;6.03;;
55869;SDS011;41790;50.940;4.560;2023-02-07T02:50:35;15.90;;;7.93;;
55869;SDS011;41790;50.940;4.560;2023-02-07T02:53:01;10.10;;;6.60;;
55869;SDS011;41790;50.940;4.560;2023-02-07T03:08:26;9.38;;;5.55;;
55869;SDS011;41790;50.940;4.560;2023-02-07T03:11:17;10.27;;;5.38;;
55869;SDS011;41790;50.940;4.560;2023-02-07T03:14:04;9.93;;;6.40;;
55869;SDS011;41790;50.940;4.560;2023-02-07T03:16:42;9.70;;;5.40;;
55869;SDS011;41790;50.940;4.560;2023-02-07T03:19:26;12.55;;;5.78;;
55869;SDS011;41790;50.940;4.560;2023-02-07T03:22:06;10.45;;;5.25;;
55869;SDS011;41790;50.940;4.560;2023-02-07T03:24:38;12.55;;;5.88;;
55869;SDS011;41790;50.940;4.560;2023-02-07T03:27:08;10.68;;;6.28;;
55869;SDS011;41790;50.940;4.560;2023-02-07T03:29:38;10.82;;;5.55;;
55869;SDS011;41790;50.940;4.560;2023-02-07T03:32:08;13.70;;;6.55;;
55869;SDS011;41790;50.940;4.560;2023-02-07T03:34:52;11.48;;;6.38;;
55869;SDS011;41790;50.940;4.560;2023-02-07T03:39:50;8.57;;;4.57;;
55869;SDS011;41790;50.940;4.560;2023-02-07T03:42:24;15.48;;;6.57;;
55869;SDS011;41790;50.940;4.560;2023-02-07T03:44:52;11.10;;;7.07;;
55869;SDS011;41790;50.940;4.560;2023-02-07T03:47:19;12.43;;;6.38;;
55869;SDS011;41790;50.940;4.560;2023-02-07T03:49:45;12.55;;;6.65;;
55869;SDS011;41790;50.940;4.560;2023-02-07T03:52:11;9.25;;;5.68;;
55869;SDS011;41790;50.940;4.560;2023-02-07T03:54:36;10.00;;;5.80;;
55869;SDS011;41790;50.940;4.560;2023-02-07T03:57:02;9.73;;;5.22;;
55869;SDS011;41790;50.940;4.560;2023-02-07T03:59:28;11.20;;;5.50;;
55869;SDS011;41790;50.940;4.560;2023-02-07T04:01:54;9.07;;;5.35;;
55869;SDS011;41790;50.940;4.560;2023-02-07T04:04:20;9.23;;;5.95;;
55869;SDS011;41790;50.940;4.560;2023-02-07T04:06:46;12.85;;;6.70;;
55869;SDS011;41790;50.940;4.560;2023-02-07T04:09:11;11.70;;;5.68;;
55869;SDS011;41790;50.940;4.560;2023-02-07T04:11:37;12.43;;;5.93;;
55869;SDS011;41790;50.940;4.560;2023-02-07T04:14:03;13.95;;;5.53;;
55869;SDS011;41790;50.940;4.560;2023-02-07T04:16:29;12.73;;;6.90;;
55869;SDS011;41790;50.940;4.560;2023-02-07T04:18:54;13.50;;;5.40;;
55869;SDS011;41790;50.940;4.560;2023-02-07T04:21:20;12.82;;;6.53;;
55869;SDS011;41790;50.940;4.560;2023-02-07T04:23:46;12.65;;;6.90;;
55869;SDS011;41790;50.940;4.560;2023-02-07T04:26:11;13.88;;;6.93;;
55869;SDS011;41790;50.940;4.560;2023-02-07T04:28:37;11.48;;;6.30;;
55869;SDS011;41790;50.940;4.560;2023-02-07T04:31:03;10.48;;;6.15;;
55869;SDS011;41790;50.940;4.560;2023-02-07T04:33:29;15.15;;;7.60;;
55869;SDS011;41790;50.940;4.560;2023-02-07T04:35:58;13.20;;;6.53;;
55869;SDS011;41790;50.940;4.560;2023-02-07T04:38:26;11.27;;;5.63;;
55869;SDS011;41790;50.940;4.560;2023-02-07T04:40:56;8.60;;;6.18;;
55869;SDS011;41790;50.940;4.560;2023-02-07T04:43:23;14.98;;;7.20;;
55869;SDS011;41790;50.940;4.560;2023-02-07T04:45:49;11.40;;;6.28;;
55869;SDS011;41790;50.940;4.560;2023-02-07T04:48:15;14.90;;;6.57;;
55869;SDS011;41790;50.940;4.560;2023-02-07T04:50:40;10.85;;;5.93;;
55869;SDS011;41790;50.940;4.560;2023-02-07T04:53:06;12.93;;;6.38;;
55869;SDS011;41790;50.940;4.560;2023-02-07T04:55:32;14.07;;;7.43;;
55869;SDS011;41790;50.940;4.560;2023-02-07T04:57:59;18.05;;;5.55;;
55869;SDS011;41790;50.940;4.560;2023-02-07T05:00:25;15.30;;;6.57;;
55869;SDS011;41790;50.940;4.560;2023-02-07T05:02:51;12.50;;;6.35;;
55869;SDS011;41790;50.940;4.560;2023-02-07T05:05:17;11.20;;;6.18;;
55869;SDS011;41790;50.940;4.560;2023-02-07T05:07:42;12.45;;;5.90;;
55869;SDS011;41790;50.940;4.560;2023-02-07T05:10:08;13.55;;;6.82;;
55869;SDS011;41790;50.940;4.560;2023-02-07T05:12:34;13.25;;;5.38;;
55869;SDS011;41790;50.940;4.560;2023-02-07T05:15:00;10.55;;;5.22;;
55869;SDS011;41790;50.940;4.560;2023-02-07T05:17:25;10.07;;;5.72;;
55869;SDS011;41790;50.940;4.560;2023-02-07T05:19:51;10.27;;;6.68;;
55869;SDS011;41790;50.940;4.560;2023-02-07T05:22:17;8.45;;;5.55;;
55869;SDS011;41790;50.940;4.560;2023-02-07T05:24:42;10.82;;;5.30;;
55869;SDS011;41790;50.940;4.560;2023-02-07T05:27:08;5.63;;;4.35;;
55869;SDS011;41790;50.940;4.560;2023-02-07T05:29:34;7.22;;;4.97;;
55869;SDS011;41790;50.940;4.560;2023-02-07T05:32:00;9.75;;;5.35;;
55869;SDS011;41790;50.940;4.560;2023-02-07T05:34:44;7.38;;;4.90;;
55869;SDS011;41790;50.940;4.560;2023-02-07T05:37:10;11.18;;;4.97;;
55869;SDS011;41790;50.940;4.560;2023-02-07T05:39:36;17.63;;;5.88;;
55869;SDS011;41790;50.940;4.560;2023-02-07T05:42:02;11.57;;;5.93;;
55869;SDS011;41790;50.940;4.560;2023-02-07T05:44:27;16.42;;;5.90;;
55869;SDS011;41790;50.940;4.560;2023-02-07T05:46:53;13.07;;;5.97;;
55869;SDS011;41790;50.940;4.560;2023-02-07T05:49:19;9.05;;;4.88;;
55869;SDS011;41790;50.940;4.560;2023-02-07T05:51:44;11.15;;;5.85;;
55869;SDS011;41790;50.940;4.560;2023-02-07T05:54:10;12.18;;;6.00;;
55869;SDS011;41790;50.940;4.560;2023-02-07T05:56:36;9.68;;;5.97;;
55869;SDS011;41790;50.940;4.560;2023-02-07T05:59:01;10.82;;;6.28;;
55869;SDS011;41790;50.940;4.560;2023-02-07T06:01:27;11.50;;;5.90;;
55869;SDS011;41790;50.940;4.560;2023-02-07T06:03:53;12.10;;;6.38;;
55869;SDS011;41790;50.940;4.560;2023-02-07T06:06:19;11.50;;;6.35;;
55869;SDS011;41790;50.940;4.560;2023-02-07T06:08:44;12.05;;;6.28;;
55869;SDS011;41790;50.940;4.560;2023-02-07T06:11:10;9.30;;;5.68;;
55869;SDS011;41790;50.940;4.560;2023-02-07T06:13:36;10.65;;;5.35;;
55869;SDS011;41790;50.940;4.560;2023-02-07T06:16:02;9.98;;;5.88;;
55869;SDS011;41790;50.940;4.560;2023-02-07T06:18:28;10.93;;;5.88;;
55869;SDS011;41790;50.940;4.560;2023-02-07T06:20:54;11.68;;;6.13;;
55869;SDS011;41790;50.940;4.560;2023-02-07T06:23:19;16.63;;;6.22;;
55869;SDS011;41790;50.940;4.560;2023-02-07T06:25:47;9.40;;;5.70;;
55869;SDS011;41790;50.940;4.560;2023-02-07T06:28:12;12.77;;;6.43;;
55869;SDS011;41790;50.940;4.560;2023-02-07T06:30:38;13.93;;;5.53;;
55869;SDS011;41790;50.940;4.560;2023-02-07T06:33:04;9.27;;;4.88;;
55869;SDS011;41790;50.940;4.560;2023-02-07T06:35:29;11.88;;;6.18;;
55869;SDS011;41790;50.940;4.560;2023-02-07T06:37:55;12.80;;;7.32;;
55869;SDS011;41790;50.940;4.560;2023-02-07T06:40:21;11.38;;;6.45;;
55869;SDS011;41790;50.940;4.560;2023-02-07T06:42:47;9.77;;;5.82;;
55869;SDS011;41790;50.940;4.560;2023-02-07T06:45:12;18.00;;;6.43;;
55869;SDS011;41790;50.940;4.560;2023-02-07T06:47:38;11.07;;;6.43;;
55869;SDS011;41790;50.940;4.560;2023-02-07T06:50:04;10.00;;;5.45;;
55869;SDS011;41790;50.940;4.560;2023-02-07T06:52:30;14.20;;;5.75;;
55869;SDS011;41790;50.940;4.560;2023-02-07T06:54:56;7.22;;;4.55;;
55869;SDS011;41790;50.940;4.560;2023-02-07T06:57:21;13.35;;;5.55;;
55869;SDS011;41790;50.940;4.560;2023-02-07T06:59:47;10.73;;;6.00;;
55869;SDS011;41790;50.940;4.560;2023-02-07T07:02:13;13.45;;;6.20;;
55869;SDS011;41790;50.940;4.560;2023-02-07T07:04:38;16.50;;;6.18;;
55869;SDS011;41790;50.940;4.560;2023-02-07T07:07:04;15.25;;;6.00;;
55869;SDS011;41790;50.940;4.560;2023-02-07T07:09:30;14.32;;;5.80;;
55869;SDS011;41790;50.940;4.560;2023-02-07T07:11:56;12.20;;;6.40;;
55869;SDS011;41790;50.940;4.560;2023-02-07T07:14:22;13.77;;;6.82;;
55869;SDS011;41790;50.940;4.560;2023-02-07T07:16:48;13.23;;;6.63;;
55869;SDS011;41790;50.940;4.560;2023-02-07T07:19:13;11.15;;;5.65;;
55869;SDS011;41790;50.940;4.560;2023-02-07T07:21:39;14.32;;;6.30;;
55869;SDS011;41790;50.940;4.560;2023-02-07T07:24:05;13.95;;;6.35;;
55869;SDS011;41790;50.940;4.560;2023-02-07T07:26:31;13.35;;;6.13;;
55869;SDS011;41790;50.940;4.560;2023-02-07T07:28:58;16.98;;;8.20;;
55869;SDS011;41790;50.940;4.560;2023-02-07T07:31:24;17.15;;;8.20;;
55869;SDS011;41790;50.940;4.560;2023-02-07T07:33:53;14.02;;;6.50;;
55869;SDS011;41790;50.940;4.560;2023-02-07T07:36:20;21.88;;;7.95;;
55869;SDS011;41790;50.940;4.560;2023-02-07T07:38:46;13.07;;;6.88;;
55869;SDS011;41790;50.940;4.560;2023-02-07T07:41:12;17.50;;;6.88;;
55869;SDS011;41790;50.940;4.560;2023-02-07T07:43:38;17.73;;;7.07;;
55869;SDS011;41790;50.940;4.560;2023-02-07T07:46:04;12.70;;;6.75;;
55869;SDS011;41790;50.940;4.560;2023-02-07T07:48:32;15.63;;;7.25;;
55869;SDS011;41790;50.940;4.560;2023-02-07T07:50:58;22.25;;;8.10;;
55869;SDS011;41790;50.940;4.560;2023-02-07T07:53:24;16.73;;;7.88;;
55869;SDS011;41790;50.940;4.560;2023-02-07T07:55:53;12.57;;;7.30;;
55869;SDS011;41790;50.940;4.560;2023-02-07T07:58:21;19.73;;;8.50;;
55869;SDS011;41790;50.940;4.560;2023-02-07T08:00:48;15.30;;;6.55;;
55869;SDS011;41790;50.940;4.560;2023-02-07T08:03:15;18.20;;;7.93;;
55869;SDS011;41790;50.940;4.560;2023-02-07T08:05:42;14.85;;;6.85;;
55869;SDS011;41790;50.940;4.560;2023-02-07T08:08:08;10.45;;;5.55;;
55869;SDS011;41790;50.940;4.560;2023-02-07T08:10:34;18.48;;;6.97;;
55869;SDS011;41790;50.940;4.560;2023-02-07T08:13:00;8.23;;;4.93;;
55869;SDS011;41790;50.940;4.560;2023-02-07T08:15:26;14.15;;;6.25;;
55869;SDS011;41790;50.940;4.560;2023-02-07T08:17:52;12.30;;;5.82;;
55869;SDS011;41790;50.940;4.560;2023-02-07T08:20:18;17.08;;;7.22;;
55869;SDS011;41790;50.940;4.560;2023-02-07T08:22:44;13.18;;;5.88;;
55869;SDS011;41790;50.940;4.560;2023-02-07T08:25:09;11.63;;;6.28;;
55869;SDS011;41790;50.940;4.560;2023-02-07T08:27:36;13.23;;;6.53;;
55869;SDS011;41790;50.940;4.560;2023-02-07T08:30:03;14.05;;;7.28;;
55869;SDS011;41790;50.940;4.560;2023-02-07T08:32:31;16.05;;;7.30;;
55869;SDS011;41790;50.940;4.560;2023-02-07T08:34:57;12.90;;;6.88;;
55869;SDS011;41790;50.940;4.560;2023-02-07T08:37:23;16.20;;;6.55;;
55869;SDS011;41790;50.940;4.560;2023-02-07T08:39:49;18.73;;;7.75;;
55869;SDS011;41790;50.940;4.560;2023-02-07T08:42:20;17.85;;;7.10;;
55869;SDS011;41790;50.940;4.560;2023-02-07T08:44:47;19.77;;;8.00;;
55869;SDS011;41790;50.940;4.560;2023-02-07T08:47:14;14.98;;;6.78;;
55869;SDS011;41790;50.940;4.560;2023-02-07T08:49:41;13.63;;;7.68;;
55869;SDS011;41790;50.940;4.560;2023-02-07T08:52:07;16.10;;;6.93;;
55869;SDS011;41790;50.940;4.560;2023-02-07T08:54:34;18.35;;;7.53;;
55869;SDS011;41790;50.940;4.560;2023-02-07T08:57:00;18.98;;;7.93;;
55869;SDS011;41790;50.940;4.560;2023-02-07T08:59:27;12.30;;;7.07;;
55869;SDS011;41790;50.940;4.560;2023-02-07T09:01:53;15.98;;;7.25;;
55869;SDS011;41790;50.940;4.560;2023-02-07T09:04:19;17.98;;;7.35;;
55869;SDS011;41790;50.940;4.560;2023-02-07T09:06:45;21.27;;;7.63;;
55869;SDS011;41790;50.940;4.560;2023-02-07T09:09:11;19.92;;;7.13;;
55869;SDS011;41790;50.940;4.560;2023-02-07T09:11:37;17.58;;;7.93;;
55869;SDS011;41790;50.940;4.560;2023-02-07T09:14:03;18.17;;;8.75;;
55869;SDS011;41790;50.940;4.560;2023-02-07T09:16:29;17.70;;;7.93;;
55869;SDS011;41790;50.940;4.560;2023-02-07T09:18:55;23.88;;;7.88;;
55869;SDS011;41790;50.940;4.560;2023-02-07T09:21:21;12.75;;;6.93;;
55869;SDS011;41790;50.940;4.560;2023-02-07T09:23:47;13.35;;;6.43;;
55869;SDS011;41790;50.940;4.560;2023-02-07T09:26:17;17.70;;;6.70;;
55869;SDS011;41790;50.940;4.560;2023-02-07T09:28:45;17.20;;;6.50;;
55869;SDS011;41790;50.940;4.560;2023-02-07T09:31:12;21.25;;;7.65;;
55869;SDS011;41790;50.940;4.560;2023-02-07T09:33:39;21.98;;;9.00;;
55869;SDS011;41790;50.940;4.560;2023-02-07T09:36:20;14.98;;;6.28;;
55869;SDS011;41790;50.940;4.560;2023-02-07T09:38:48;13.27;;;6.70;;
55869;SDS011;41790;50.940;4.560;2023-02-07T09:41:17;15.40;;;6.93;;
55869;SDS011;41790;50.940;4.560;2023-02-07T09:52:11;18.05;;;7.07;;
55869;SDS011;41790;50.940;4.560;2023-02-07T09:54:42;11.20;;;5.78;;
55869;SDS011;41790;50.940;4.560;2023-02-07T09:57:15;11.70;;;5.95;;
55869;SDS011;41790;50.940;4.560;2023-02-07T10:02:21;13.48;;;6.80;;
55869;SDS011;41790;50.940;4.560;2023-02-07T10:05:06;17.42;;;6.05;;
55869;SDS011;41790;50.940;4.560;2023-02-07T10:07:42;12.93;;;5.85;;
55869;SDS011;41790;50.940;4.560;2023-02-07T10:10:17;16.33;;;5.82;;
55869;SDS011;41790;50.940;4.560;2023-02-07T10:13:06;13.63;;;4.95;;
55869;SDS011;41790;50.940;4.560;2023-02-07T10:21:14;11.10;;;5.38;;
55869;SDS011;41790;50.940;4.560;2023-02-07T10:26:57;7.95;;;4.15;;
55869;SDS011;41790;50.940;4.560;2023-02-07T10:29:48;13.93;;;5.25;;
55869;SDS011;41790;50.940;4.560;2023-02-07T10:32:25;12.07;;;3.70;;
55869;SDS011;41790;50.940;4.560;2023-02-07T10:34:55;12.20;;;3.50;;
55869;SDS011;41790;50.940;4.560;2023-02-07T10:37:28;5.45;;;3.40;;
55869;SDS011;41790;50.940;4.560;2023-02-07T10:40:00;5.03;;;3.20;;
55869;SDS011;41790;50.940;4.560;2023-02-07T10:43:03;6.93;;;3.85;;
55869;SDS011;41790;50.940;4.560;2023-02-07T10:45:34;9.98;;;3.30;;
55869;SDS011;41790;50.940;4.560;2023-02-07T10:48:07;6.72;;;2.95;;
55869;SDS011;41790;50.940;4.560;2023-02-07T10:50:39;4.80;;;2.63;;
55869;SDS011;41790;50.940;4.560;2023-02-07T10:53:05;6.15;;;2.70;;
55869;SDS011;41790;50.940;4.560;2023-02-07T10:58:05;5.13;;;2.78;;
55869;SDS011;41790;50.940;4.560;2023-02-07T11:00:37;5.60;;;2.53;;
55869;SDS011;41790;50.940;4.560;2023-02-07T11:03:04;6.35;;;2.65;;
55869;SDS011;41790;50.940;4.560;2023-02-07T11:05:36;4.95;;;2.50;;
55869;SDS011;41790;50.940;4.560;2023-02-07T11:10:41;4.25;;;2.58;;
55869;SDS011;41790;50.940;4.560;2023-02-07T11:13:15;7.97;;;3.22;;
55869;SDS011;41790;50.940;4.560;2023-02-07T11:15:47;9.68;;;4.10;;
55869;SDS011;41790;50.940;4.560;2023-02-07T11:18:33;9.88;;;3.67;;
55869;SDS011;41790;50.940;4.560;2023-02-07T11:26:51;15.93;;;3.35;;
55869;SDS011;41790;50.940;4.560;2023-02-07T11:29:37;10.40;;;3.70;;
55869;SDS011;41790;50.940;4.560;2023-02-07T11:32:26;8.88;;;3.92;;
55869;SDS011;41790;50.940;4.560;2023-02-07T11:34:53;9.15;;;3.85;;
55869;SDS011;41790;50.940;4.560;2023-02-07T11:37:29;4.50;;;2.88;;
55869;SDS011;41790;50.940;4.560;2023-02-07T11:40:19;8.32;;;3.50;;
55869;SDS011;41790;50.940;4.560;2023-02-07T11:42:58;8.55;;;3.58;;
55869;SDS011;41790;50.940;4.560;2023-02-07T11:45:30;6.93;;;3.28;;
55869;SDS011;41790;50.940;4.560;2023-02-07T11:48:00;9.35;;;3.42;;
55869;SDS011;41790;50.940;4.560;2023-02-07T11:50:34;10.32;;;3.85;;
55869;SDS011;41790;50.940;4.560;2023-02-07T11:53:03;9.05;;;3.60;;
55869;SDS011;41790;50.940;4.560;2023-02-07T11:55:34;11.88;;;3.70;;
55869;SDS011;41790;50.940;4.560;2023-02-07T11:58:09;9.43;;;3.72;;
55869;SDS011;41790;50.940;4.560;2023-02-07T12:00:42;8.55;;;3.67;;
55869;SDS011;41790;50.940;4.560;2023-02-07T12:03:25;10.70;;;3.55;;
55869;SDS011;41790;50.940;4.560;2023-02-07T12:05:54;7.18;;;3.25;;
55869;SDS011;41790;50.940;4.560;2023-02-07T12:08:32;8.32;;;3.85;;
55869;SDS011;41790;50.940;4.560;2023-02-07T12:11:00;7.30;;;3.22;;
55869;SDS011;41790;50.940;4.560;2023-02-07T12:13:45;6.22;;;3.50;;
55869;SDS011;41790;50.940;4.560;2023-02-07T12:16:16;7.93;;;3.97;;
55869;SDS011;41790;50.940;4.560;2023-02-07T12:21:22;7.65;;;3.40;;
55869;SDS011;41790;50.940;4.560;2023-02-07T12:24:11;8.98;;;3.63;;
55869;SDS011;41790;50.940;4.560;2023-02-07T12:32:07;7.38;;;3.25;;
55869;SDS011;41790;50.940;4.560;2023-02-07T12:37:54;5.53;;;2.83;;
55869;SDS011;41790;50.940;4.560;2023-02-07T12:40:39;7.93;;;3.67;;
55869;SDS011;41790;50.940;4.560;2023-02-07T12:51:40;6.25;;;3.17;;
55869;SDS011;41790;50.940;4.560;2023-02-07T13:07:43;7.35;;;2.85;;
55869;SDS011;41790;50.940;4.560;2023-02-07T13:10:48;3.60;;;2.60;;
55869;SDS011;41790;50.940;4.560;2023-02-07T13:21:09;8.38;;;3.55;;
55869;SDS011;41790;50.940;4.560;2023-02-07T13:23:48;6.57;;;3.03;;
55869;SDS011;41790;50.940;4.560;2023-02-07T13:26:20;7.38;;;3.20;;
55869;SDS011;41790;50.940;4.560;2023-02-07T13:29:10;6.68;;;3.53;;
55869;SDS011;41790;50.940;4.560;2023-02-07T13:31:40;6.68;;;3.72;;
55869;SDS011;41790;50.940;4.560;2023-02-07T13:34:25;6.90;;;3.17;;
55869;SDS011;41790;50.940;4.560;2023-02-07T13:36:55;4.55;;;3.10;;
55869;SDS011;41790;50.940;4.560;2023-02-07T13:39:39;7.72;;;3.35;;
55869;SDS011;41790;50.940;4.560;2023-02-07T13:45:00;9.67;;;3.77;;
55869;SDS011;41790;50.940;4.560;2023-02-07T13:55:50;5.60;;;3.08;;
55869;SDS011;41790;50.940;4.560;2023-02-07T14:01:34;8.20;;;3.58;;
55869;SDS011;41790;50.940;4.560;2023-02-07T14:04:03;16.95;;;6.78;;
55869;SDS011;41790;50.940;4.560;2023-02-07T14:06:39;6.97;;;3.38;;
55869;SDS011;41790;50.940;4.560;2023-02-07T14:09:28;5.85;;;3.55;;
55869;SDS011;41790;50.940;4.560;2023-02-07T14:12:05;8.38;;;3.35;;
55869;SDS011;41790;50.940;4.560;2023-02-07T14:14:41;5.03;;;2.67;;
55869;SDS011;41790;50.940;4.560;2023-02-07T14:17:14;5.57;;;3.03;;
55869;SDS011;41790;50.940;4.560;2023-02-07T14:19:59;11.75;;;3.47;;
55869;SDS011;41790;50.940;4.560;2023-02-07T14:22:30;6.45;;;2.88;;
55869;SDS011;41790;50.940;4.560;2023-02-07T14:27:41;6.30;;;2.88;;
55869;SDS011;41790;50.940;4.560;2023-02-07T14:30:35;8.98;;;3.28;;
55869;SDS011;41790;50.940;4.560;2023-02-07T14:33:15;5.40;;;2.70;;
55869;SDS011;41790;50.940;4.560;2023-02-07T14:38:32;7.30;;;3.22;;
55869;SDS011;41790;50.940;4.560;2023-02-07T14:41:26;9.15;;;2.67;;
55869;SDS011;41790;50.940;4.560;2023-02-07T14:43:55;7.85;;;3.28;;
55869;SDS011;41790;50.940;4.560;2023-02-07T14:46:35;6.32;;;2.95;;
55869;SDS011;41790;50.940;4.560;2023-02-07T14:54:17;6.75;;;3.05;;
55869;SDS011;41790;50.940;4.560;2023-02-07T14:56:48;5.05;;;3.03;;
55869;SDS011;41790;50.940;4.560;2023-02-07T14:59:32;5.53;;;3.00;;
55869;SDS011;41790;50.940;4.560;2023-02-07T15:04:57;4.88;;;2.67;;
55869;SDS011;41790;50.940;4.560;2023-02-07T15:07:34;7.95;;;2.83;;
55869;SDS011;41790;50.940;4.560;2023-02-07T15:10:00;6.00;;;3.10;;
55869;SDS011;41790;50.940;4.560;2023-02-07T15:12:37;5.82;;;2.88;;
55869;SDS011;41790;50.940;4.560;2023-02-07T15:15:07;8.05;;;2.70;;
55869;SDS011;41790;50.940;4.560;2023-02-07T15:17:42;9.68;;;3.15;;
55869;SDS011;41790;50.940;4.560;2023-02-07T15:20:13;5.53;;;3.00;;
55869;SDS011;41790;50.940;4.560;2023-02-07T15:22:41;6.07;;;2.42;;
55869;SDS011;41790;50.940;4.560;2023-02-07T15:25:10;13.80;;;6.85;;
55869;SDS011;41790;50.940;4.560;2023-02-07T15:27:38;3.85;;;2.42;;
55869;SDS011;41790;50.940;4.560;2023-02-07T15:30:05;5.15;;;2.90;;
55869;SDS011;41790;50.940;4.560;2023-02-07T15:32:40;10.70;;;3.03;;
55869;SDS011;41790;50.940;4.560;2023-02-07T15:37:45;7.20;;;3.05;;
55869;SDS011;41790;50.940;4.560;2023-02-07T15:40:16;9.00;;;3.20;;
55869;SDS011;41790;50.940;4.560;2023-02-07T15:42:51;6.15;;;2.42;;
55869;SDS011;41790;50.940;4.560;2023-02-07T15:45:25;6.38;;;2.85;;
55869;SDS011;41790;50.940;4.560;2023-02-07T15:47:55;4.88;;;3.30;;
55869;SDS011;41790;50.940;4.560;2023-02-07T15:50:24;7.35;;;3.13;;
55869;SDS011;41790;50.940;4.560;2023-02-07T15:52:58;5.75;;;2.42;;
55869;SDS011;41790;50.940;4.560;2023-02-07T15:55:45;3.85;;;1.98;;
55869;SDS011;41790;50.940;4.560;2023-02-07T15:58:26;3.72;;;2.15;;
55869;SDS011;41790;50.940;4.560;2023-02-07T16:00:59;5.40;;;2.60;;
55869;SDS011;41790;50.940;4.560;2023-02-07T16:03:33;5.18;;;2.60;;
55869;SDS011;41790;50.940;4.560;2023-02-07T16:06:06;11.98;;;3.00;;
55869;SDS011;41790;50.940;4.560;2023-02-07T16:08:48;8.85;;;2.85;;
55869;SDS011;41790;50.940;4.560;2023-02-07T16:16:50;10.20;;;2.97;;
55869;SDS011;41790;50.940;4.560;2023-02-07T16:19:30;23.52;;;4.85;;
55869;SDS011;41790;50.940;4.560;2023-02-07T16:24:35;4.57;;;2.95;;
55869;SDS011;41790;50.940;4.560;2023-02-07T16:27:04;4.85;;;2.78;;
55869;SDS011;41790;50.940;4.560;2023-02-07T16:29:32;7.53;;;2.90;;
55869;SDS011;41790;50.940;4.560;2023-02-07T16:31:59;4.63;;;2.85;;
55869;SDS011;41790;50.940;4.560;2023-02-07T16:34:26;7.32;;;3.13;;
55869;SDS011;41790;50.940;4.560;2023-02-07T16:36:52;8.68;;;3.30;;
55869;SDS011;41790;50.940;4.560;2023-02-07T16:39:20;7.63;;;3.83;;
55869;SDS011;41790;50.940;4.560;2023-02-07T16:41:51;10.32;;;3.55;;
55869;SDS011;41790;50.940;4.560;2023-02-07T16:44:23;9.68;;;4.88;;
55869;SDS011;41790;50.940;4.560;2023-02-07T16:46:50;10.60;;;3.92;;
55869;SDS011;41790;50.940;4.560;2023-02-07T16:49:19;10.18;;;3.40;;
55869;SDS011;41790;50.940;4.560;2023-02-07T16:51:46;7.45;;;4.18;;
55869;SDS011;41790;50.940;4.560;2023-02-07T16:54:13;11.48;;;4.20;;
55869;SDS011;41790;50.940;4.560;2023-02-07T16:56:39;11.88;;;5.70;;
55869;SDS011;41790;50.940;4.560;2023-02-07T16:59:05;11.70;;;4.00;;
55869;SDS011;41790;50.940;4.560;2023-02-07T17:01:33;10.27;;;5.00;;
55869;SDS011;41790;50.940;4.560;2023-02-07T17:03:59;16.17;;;4.82;;
55869;SDS011;41790;50.940;4.560;2023-02-07T17:06:25;35.17;;;4.50;;
55869;SDS011;41790;50.940;4.560;2023-02-07T17:08:51;17.73;;;4.97;;
55869;SDS011;41790;50.940;4.560;2023-02-07T17:11:19;12.40;;;4.13;;
55869;SDS011;41790;50.940;4.560;2023-02-07T17:13:55;11.75;;;5.00;;
55869;SDS011;41790;50.940;4.560;2023-02-07T17:16:22;17.13;;;5.65;;
55869;SDS011;41790;50.940;4.560;2023-02-07T17:18:50;12.38;;;5.68;;
55869;SDS011;41790;50.940;4.560;2023-02-07T17:21:16;9.15;;;5.20;;
55869;SDS011;41790;50.940;4.560;2023-02-07T17:23:42;11.38;;;4.60;;
55869;SDS011;41790;50.940;4.560;2023-02-07T17:26:20;15.55;;;5.35;;
55869;SDS011;41790;50.940;4.560;2023-02-07T17:28:49;8.90;;;4.20;;